Time;durP1;ratioP1;P1;durP2;ratioP2;P2;SDS_P1;SDS_P2;PMS_P1;PMS_P2;Temp;Humidity;BMP_temperature;BMP_pressure;BME280_temperature;BME280_humidity;BME280_pressure;Samples;Min_cycle;Max_cycle;Signal;HPM_P1;HPM_P2
2022/09/23 00:01:38;;;;;;;3.30;3.10;;;14.00;99.90;;;;;;5047952;28;20057;-75
2022/09/23 00:04:04;;;;;;;4.35;3.47;;;14.10;99.90;;;;;;5048185;28;20492;-75
2022/09/23 00:06:29;;;;;;;3.60;3.30;;;14.10;99.90;;;;;;5048225;28;20039;-75
2022/09/23 00:08:55;;;;;;;3.80;3.38;;;14.00;99.90;;;;;;5046936;28;20391;-75
2022/09/23 00:11:23;;;;;;;4.03;3.72;;;14.00;99.90;;;;;;5047849;28;20483;-75
2022/09/23 00:13:52;;;;;;;3.85;3.50;;;13.90;99.90;;;;;;5050251;28;20028;-75
2022/09/23 00:16:24;;;;;;;4.22;3.92;;;13.90;99.90;;;;;;5051740;28;20025;-75
2022/09/23 00:18:49;;;;;;;3.35;3.05;;;13.90;99.90;;;;;;5051745;28;20017;-75
2022/09/23 00:21:16;;;;;;;3.60;3.30;;;13.90;99.90;;;;;;5050170;28;20029;-75
2022/09/23 00:23:42;;;;;;;3.45;3.20;;;13.90;99.90;;;;;;5050140;28;20611;-75
2022/09/23 00:26:11;;;;;;;4.57;3.53;;;13.80;99.90;;;;;;5051613;28;20404;-75
2022/09/23 00:28:37;;;;;;;3.38;3.13;;;13.80;99.90;;;;;;5050273;28;20507;-74
2022/09/23 00:31:12;;;;;;;3.95;3.55;;;13.70;99.90;;;;;;5049899;28;20517;-75
2022/09/23 00:33:39;;;;;;;3.55;3.25;;;13.70;99.90;;;;;;5050416;28;20018;-74
2022/09/23 00:36:06;;;;;;;3.58;3.28;;;13.70;99.90;;;;;;5049967;28;20025;-75
2022/09/23 00:38:32;;;;;;;3.75;3.33;;;13.70;99.90;;;;;;5051210;28;20025;-74
2022/09/23 00:40:59;;;;;;;3.75;3.55;;;13.80;99.90;;;;;;5051572;28;20472;-75
2022/09/23 00:43:44;;;;;;;3.03;2.80;;;13.70;99.90;;;;;;5050082;28;20391;-75
2022/09/23 00:46:33;;;;;;;3.35;3.10;;;13.70;99.90;;;;;;5051043;28;20495;-75
2022/09/23 00:49:22;;;;;;;3.25;2.95;;;13.70;99.90;;;;;;5050855;27;20143;-75
2022/09/23 00:51:54;;;;;;;3.35;3.05;;;13.70;99.90;;;;;;5049665;28;20074;-74
2022/09/23 00:54:22;;;;;;;3.25;2.78;;;13.60;99.90;;;;;;5049900;28;20029;-75
2022/09/23 00:56:48;;;;;;;3.03;2.83;;;13.60;99.90;;;;;;5049711;28;20068;-75
2022/09/23 00:59:14;;;;;;;3.13;2.92;;;13.60;99.90;;;;;;5049694;28;20028;-74
2022/09/23 01:01:42;;;;;;;2.75;2.60;;;13.60;99.90;;;;;;5049327;28;20045;-75
2022/09/23 01:04:08;;;;;;;3.08;2.80;;;13.60;99.90;;;;;;5049753;28;20036;-75
2022/09/23 01:06:34;;;;;;;3.10;2.80;;;13.60;99.90;;;;;;5049335;28;20021;-74
2022/09/23 01:09:00;;;;;;;4.38;2.47;;;13.50;99.90;;;;;;5050809;28;20077;-75
2022/09/23 01:11:26;;;;;;;2.88;2.50;;;13.50;99.90;;;;;;5050855;28;20029;-75
2022/09/23 01:13:58;;;;;;;2.47;2.28;;;13.50;99.90;;;;;;5049443;28;20044;-74
2022/09/23 01:16:26;;;;;;;2.38;2.28;;;13.50;99.90;;;;;;5050622;28;20021;-75
2022/09/23 01:18:58;;;;;;;3.28;2.72;;;13.50;99.90;;;;;;5049321;28;20552;-74
2022/09/23 01:21:51;;;;;;;2.65;2.30;;;13.50;99.90;;;;;;5050497;28;20108;-75
2022/09/23 01:24:42;;;;;;;2.05;1.95;;;13.50;99.90;;;;;;5048918;28;20033;-75
2022/09/23 01:27:15;;;;;;;2.15;2.03;;;13.50;99.90;;;;;;5050562;28;20104;-75
2022/09/23 01:30:16;;;;;;;1.85;1.75;;;13.40;99.90;;;;;;5049199;28;20021;-75
2022/09/23 01:32:55;;;;;;;2.03;1.92;;;13.40;99.90;;;;;;5041244;28;20049;-74
2022/09/23 01:35:34;;;;;;;2.30;2.20;;;13.50;99.90;;;;;;5050604;28;20035;-75
2022/09/23 01:38:10;;;;;;;1.90;1.80;;;13.50;99.90;;;;;;5049083;28;20445;-75
2022/09/23 01:40:51;;;;;;;1.80;1.70;;;13.40;99.90;;;;;;5050228;28;20025;-75
2022/09/23 01:43:40;;;;;;;4.07;1.80;;;13.40;99.90;;;;;;5050211;28;20133;-74
2022/09/23 01:46:20;;;;;;;1.77;1.67;;;13.50;99.90;;;;;;5050203;28;20039;-75
2022/09/23 01:49:07;;;;;;;1.75;1.65;;;13.40;99.90;;;;;;5050357;28;20029;-75
2022/09/23 01:51:40;;;;;;;2.03;1.92;;;13.40;99.90;;;;;;5049937;28;20393;-75
2022/09/23 01:54:37;;;;;;;1.50;1.40;;;13.40;99.90;;;;;;5050027;28;20468;-75
2022/09/23 01:57:38;;;;;;;1.55;1.48;;;13.40;99.90;;;;;;5048911;28;20021;-75
2022/09/23 02:00:07;;;;;;;1.55;1.45;;;13.40;99.90;;;;;;5025830;28;20029;-75
2022/09/23 02:02:40;;;;;;;1.52;1.42;;;13.40;99.90;;;;;;5049857;28;20052;-74
2022/09/23 02:05:38;;;;;;;1.73;1.63;;;13.30;99.90;;;;;;5048866;28;20025;-75
2022/09/23 02:08:30;;;;;;;1.45;1.40;;;13.30;99.90;;;;;;5049330;28;20033;-75
2022/09/23 02:11:02;;;;;;;1.43;1.33;;;13.30;99.90;;;;;;5037785;28;20072;-75
2022/09/23 02:13:38;;;;;;;1.95;1.50;;;13.40;99.90;;;;;;5049831;28;20021;-75
2022/09/23 02:16:11;;;;;;;1.23;1.20;;;13.40;99.90;;;;;;5048369;28;20017;-75
2022/09/23 02:18:46;;;;;;;3.92;1.27;;;13.40;99.90;;;;;;5048527;28;20391;-74
2022/09/23 02:21:14;;;;;;;2.25;1.30;;;13.40;99.90;;;;;;5048474;28;20041;-75
2022/09/23 02:23:49;;;;;;;1.00;1.00;;;13.40;99.90;;;;;;5049626;28;20021;-75
2022/09/23 02:26:27;;;;;;;1.20;1.20;;;13.40;99.90;;;;;;5048481;28;20060;-75
2022/09/23 02:29:30;;;;;;;1.50;1.02;;;13.30;99.90;;;;;;5048258;28;20025;-75
2022/09/23 02:32:11;;;;;;;1.52;1.42;;;13.40;99.90;;;;;;5033205;28;20033;-75
2022/09/23 02:34:52;;;;;;;1.55;1.00;;;13.40;99.90;;;;;;5047268;28;20463;-75
2022/09/23 02:37:33;;;;;;;1.02;1.02;;;13.40;99.90;;;;;;5048218;28;20024;-75
2022/09/23 02:40:37;;;;;;;2.15;1.38;;;13.30;99.90;;;;;;5048141;28;20441;-75
2022/09/23 02:43:26;;;;;;;1.10;1.10;;;13.40;99.90;;;;;;5041777;28;20119;-75
2022/09/23 02:45:52;;;;;;;1.60;1.05;;;13.40;99.90;;;;;;5049473;28;20029;-74
2022/09/23 02:48:26;;;;;;;1.40;1.30;;;13.40;99.90;;;;;;5048008;28;20028;-75
2022/09/23 02:50:53;;;;;;;1.10;1.10;;;13.40;99.90;;;;;;5048999;28;20021;-75
2022/09/23 02:53:21;;;;;;;1.10;1.10;;;13.50;99.90;;;;;;5048122;28;20492;-75
2022/09/23 02:55:47;;;;;;;1.00;1.00;;;13.50;99.90;;;;;;5047754;28;20044;-74
2022/09/23 02:58:13;;;;;;;1.00;0.90;;;13.60;99.90;;;;;;5049255;28;20491;-75
2022/09/23 03:00:55;;;;;;;1.10;1.10;;;13.60;99.90;;;;;;5048790;28;20132;-75
2022/09/23 03:03:47;;;;;;;0.93;0.93;;;13.60;99.90;;;;;;5047753;28;20554;-75
2022/09/23 03:06:55;;;;;;;1.03;0.97;;;13.60;99.90;;;;;;5043161;28;20079;-75
2022/09/23 03:10:02;;;;;;;0.88;0.88;;;13.60;99.90;;;;;;5048810;28;20021;-75
2022/09/23 03:12:38;;;;;;;1.00;1.00;;;13.60;99.90;;;;;;5034579;28;20051;-75
2022/09/23 03:15:24;;;;;;;0.80;0.80;;;13.60;99.90;;;;;;5048994;28;20058;-75
2022/09/23 03:17:59;;;;;;;1.05;1.05;;;13.70;99.90;;;;;;5047684;28;20025;-75
2022/09/23 03:20:37;;;;;;;0.85;0.82;;;13.70;99.90;;;;;;5047688;28;20032;-75
2022/09/23 03:23:07;;;;;;;0.98;0.98;;;13.70;99.90;;;;;;5048599;28;20025;-75
2022/09/23 03:25:37;;;;;;;0.90;0.90;;;13.70;99.90;;;;;;5048663;28;20107;-75
2022/09/23 03:28:05;;;;;;;0.85;0.85;;;13.80;99.90;;;;;;5048602;28;20498;-75
2022/09/23 03:30:34;;;;;;;1.77;1.10;;;13.80;99.90;;;;;;5048523;28;20054;-75
2022/09/23 03:33:03;;;;;;;0.77;0.77;;;13.70;99.90;;;;;;5048571;28;20393;-75
2022/09/23 03:36:48;;;;;;;2.47;0.85;;;13.70;99.90;;;;;;5047402;28;20028;-75
2022/09/23 03:38:22;;;;;;;0.70;0.70;;;13.70;99.90;;;;;;5048473;28;20024;-75
2022/09/23 03:40:49;;;;;;;0.85;0.85;;;13.80;99.90;;;;;;5048627;28;20025;-75
2022/09/23 03:43:15;;;;;;;0.90;0.90;;;13.70;99.90;;;;;;5047249;28;20395;-75
2022/09/23 03:45:41;;;;;;;0.90;0.90;;;13.80;99.90;;;;;;5048115;28;20259;-75
2022/09/23 03:48:07;;;;;;;0.80;0.80;;;13.70;99.90;;;;;;5048536;28;20025;-75
2022/09/23 03:50:34;;;;;;;0.98;0.82;;;13.80;99.90;;;;;;5046947;28;20053;-74
2022/09/23 03:53:00;;;;;;;1.80;1.00;;;13.70;99.90;;;;;;5048147;28;20017;-75
2022/09/23 03:55:26;;;;;;;0.68;0.68;;;13.70;99.90;;;;;;5047018;28;20025;-74
2022/09/23 03:57:52;;;;;;;1.02;0.77;;;13.70;99.90;;;;;;5046775;28;20499;-74
2022/09/23 04:00:18;;;;;;;5.03;0.70;;;13.60;99.90;;;;;;5046346;28;20048;-75
2022/09/23 04:02:44;;;;;;;0.82;0.82;;;13.60;99.90;;;;;;5048010;28;20080;-74
2022/09/23 04:05:11;;;;;;;1.20;0.80;;;13.70;99.90;;;;;;5048345;28;20021;-74
2022/09/23 04:07:37;;;;;;;1.85;0.95;;;13.60;99.90;;;;;;5046899;28;20393;-74
2022/09/23 04:10:04;;;;;;;1.98;0.80;;;13.60;99.90;;;;;;5048140;28;20096;-74
2022/09/23 04:12:30;;;;;;;0.80;0.80;;;13.60;99.90;;;;;;5046888;28;20497;-75
2022/09/23 04:14:55;;;;;;;1.27;0.90;;;13.60;99.90;;;;;;5048043;28;20033;-74
2022/09/23 04:17:21;;;;;;;1.85;0.88;;;13.60;99.90;;;;;;5048025;28;20025;-75
2022/09/23 04:19:47;;;;;;;1.00;0.95;;;13.60;99.90;;;;;;5046842;28;20062;-74
2022/09/23 04:22:12;;;;;;;8.70;1.10;;;13.50;99.90;;;;;;5036600;28;20060;-75
2022/09/23 04:24:38;;;;;;;2.28;0.90;;;13.50;99.90;;;;;;5027002;28;20195;-74
2022/09/23 04:27:04;;;;;;;0.82;0.82;;;13.50;99.90;;;;;;5028097;28;20480;-74
2022/09/23 04:29:30;;;;;;;0.80;0.80;;;13.50;99.90;;;;;;5027967;28;20030;-74
2022/09/23 04:31:56;;;;;;;0.80;0.80;;;13.50;99.90;;;;;;5028001;28;20366;-74
2022/09/23 04:34:22;;;;;;;1.75;0.80;;;13.50;99.90;;;;;;5026636;28;20022;-75
2022/09/23 04:36:48;;;;;;;1.17;1.17;;;13.40;99.90;;;;;;5027975;28;20490;-75
2022/09/23 04:39:15;;;;;;;0.82;0.82;;;13.40;99.90;;;;;;5028013;28;20010;-74
2022/09/23 04:41:41;;;;;;;2.50;1.02;;;13.40;99.90;;;;;;5027770;28;20029;-74
2022/09/23 04:44:07;;;;;;;3.50;0.80;;;13.30;99.90;;;;;;5027990;28;20029;-74
2022/09/23 04:46:33;;;;;;;3.38;0.85;;;13.20;99.90;;;;;;5027933;28;20100;-75
2022/09/23 04:48:59;;;;;;;1.63;0.85;;;13.30;99.90;;;;;;5026693;28;20060;-74
2022/09/23 04:51:26;;;;;;;1.30;1.20;;;13.20;99.90;;;;;;5031232;28;20128;-74
2022/09/23 04:53:52;;;;;;;0.82;0.82;;;13.20;99.90;;;;;;5046459;28;20259;-74
2022/09/23 04:56:25;;;;;;;2.10;1.25;;;13.20;99.90;;;;;;5047724;28;20025;-75
2022/09/23 04:58:51;;;;;;;1.00;1.00;;;13.10;99.90;;;;;;5048296;28;20116;-75
2022/09/23 05:01:26;;;;;;;1.50;1.10;;;13.10;99.90;;;;;;5050606;28;20056;-74
2022/09/23 05:03:53;;;;;;;1.27;1.17;;;13.10;99.90;;;;;;5049689;28;20036;-75
2022/09/23 05:06:20;;;;;;;0.70;0.70;;;13.00;99.90;;;;;;5049741;28;20025;-74
2022/09/23 05:08:48;;;;;;;1.27;0.70;;;13.10;99.90;;;;;;5050848;28;20073;-74
2022/09/23 05:11:14;;;;;;;4.65;0.93;;;13.10;99.90;;;;;;5049453;28;20625;-74
2022/09/23 05:13:40;;;;;;;1.00;0.93;;;13.10;99.90;;;;;;5050702;28;20052;-75
2022/09/23 05:16:08;;;;;;;1.27;1.17;;;13.10;99.90;;;;;;5050813;28;20475;-74
2022/09/23 05:18:35;;;;;;;2.65;1.20;;;13.20;99.90;;;;;;5050476;28;20062;-75
2022/09/23 05:21:01;;;;;;;2.70;0.98;;;13.20;99.90;;;;;;5049090;28;20025;-75
2022/09/23 05:23:28;;;;;;;1.25;1.13;;;13.20;99.90;;;;;;5049543;28;20029;-75
2022/09/23 05:25:59;;;;;;;1.83;1.10;;;13.20;99.90;;;;;;5049188;28;20043;-75
2022/09/23 05:28:28;;;;;;;1.15;0.82;;;13.20;99.90;;;;;;5048687;28;20032;-74
2022/09/23 05:31:03;;;;;;;0.85;0.85;;;13.20;99.90;;;;;;5047153;28;20036;-75
2022/09/23 05:33:30;;;;;;;1.33;0.93;;;13.20;99.90;;;;;;5047178;28;20376;-75
2022/09/23 05:35:55;;;;;;;0.70;0.70;;;13.20;99.90;;;;;;5047471;28;20025;-75
2022/09/23 05:38:21;;;;;;;4.75;1.05;;;13.20;99.90;;;;;;5047577;28;20021;-74
2022/09/23 05:41:04;;;;;;;0.82;0.82;;;13.20;99.90;;;;;;5048720;28;20025;-74
2022/09/23 05:43:30;;;;;;;0.80;0.80;;;13.20;99.90;;;;;;5048735;28;20499;-75
2022/09/23 05:46:03;;;;;;;1.30;1.20;;;13.30;99.90;;;;;;5050303;28;20032;-74
2022/09/23 05:48:34;;;;;;;2.20;1.08;;;13.30;99.90;;;;;;5048867;28;20029;-75
2022/09/23 05:51:00;;;;;;;4.47;1.40;;;13.30;99.90;;;;;;5048806;28;20391;-74
2022/09/23 05:53:28;;;;;;;2.85;0.90;;;13.40;99.90;;;;;;5050292;28;20028;-74
2022/09/23 05:55:55;;;;;;;2.33;1.40;;;13.40;99.90;;;;;;5048451;28;20069;-74
2022/09/23 05:58:22;;;;;;;2.25;0.93;;;13.40;99.90;;;;;;5048578;28;20112;-74
2022/09/23 06:00:48;;;;;;;1.83;1.02;;;13.50;99.90;;;;;;5049672;27;20086;-75
2022/09/23 06:03:15;;;;;;;0.85;0.82;;;13.50;99.90;;;;;;5049791;28;20029;-74
2022/09/23 06:05:41;;;;;;;1.85;0.95;;;13.50;99.90;;;;;;5049914;28;20029;-74
2022/09/23 06:08:08;;;;;;;1.02;1.00;;;13.60;99.90;;;;;;5049944;28;20036;-74
2022/09/23 06:10:38;;;;;;;0.73;0.73;;;13.60;99.90;;;;;;5048373;28;20073;-74
2022/09/23 06:13:04;;;;;;;0.90;0.90;;;13.60;99.90;;;;;;5048546;28;20085;-75
2022/09/23 06:15:30;;;;;;;0.82;0.82;;;13.70;99.90;;;;;;5049719;28;20480;-75
2022/09/23 06:17:55;;;;;;;1.35;1.00;;;13.70;99.90;;;;;;5049866;28;20115;-75
2022/09/23 06:20:21;;;;;;;0.90;0.90;;;13.80;99.90;;;;;;5048379;28;20392;-75
2022/09/23 06:22:46;;;;;;;2.15;0.82;;;13.80;99.90;;;;;;5048957;28;20115;-83
2022/09/23 06:25:12;;;;;;;4.55;0.85;;;13.90;99.90;;;;;;5051121;28;20017;-83
2022/09/23 06:27:38;;;;;;;2.80;0.85;;;14.00;99.90;;;;;;5051136;28;20028;-84
2022/09/23 06:30:05;;;;;;;0.85;0.85;;;14.00;99.90;;;;;;5051047;28;20577;-74
2022/09/23 06:32:32;;;;;;;2.47;1.05;;;14.10;99.90;;;;;;5049221;28;20033;-75
2022/09/23 06:34:57;;;;;;;1.25;0.82;;;14.20;99.90;;;;;;5049299;28;20593;-74
2022/09/23 06:37:23;;;;;;;1.25;0.82;;;14.20;99.90;;;;;;5049280;28;20032;-75
2022/09/23 06:39:49;;;;;;;1.33;0.95;;;14.30;99.90;;;;;;5050547;28;20372;-75
2022/09/23 06:42:15;;;;;;;0.70;0.70;;;14.30;99.90;;;;;;5047678;28;20029;-75
2022/09/23 06:44:44;;;;;;;0.90;0.90;;;14.40;99.90;;;;;;5030466;28;20053;-75
2022/09/23 06:47:10;;;;;;;1.02;0.88;;;14.40;99.90;;;;;;5031666;28;20089;-74
2022/09/23 06:49:36;;;;;;;3.13;0.70;;;14.40;99.90;;;;;;5040285;28;20021;-74
2022/09/23 06:52:01;;;;;;;3.83;1.70;;;14.40;99.90;;;;;;5040391;28;20030;-75
2022/09/23 06:54:29;;;;;;;1.00;1.00;;;14.50;99.90;;;;;;5047421;28;20033;-74
2022/09/23 06:56:55;;;;;;;1.95;0.90;;;14.50;99.90;;;;;;5050318;28;20401;-74
2022/09/23 06:59:21;;;;;;;0.75;0.75;;;14.60;99.90;;;;;;5050238;28;20024;-75
2022/09/23 07:01:47;;;;;;;1.85;1.13;;;14.60;99.90;;;;;;5049885;28;20140;-74
2022/09/23 07:04:16;;;;;;;5.50;0.95;;;14.60;99.90;;;;;;5048888;28;20133;-75
2022/09/23 07:06:41;;;;;;;0.82;0.75;;;14.60;99.90;;;;;;5050170;28;20623;-75
2022/09/23 07:09:08;;;;;;;0.90;0.90;;;14.70;99.90;;;;;;5050303;28;20132;-75
2022/09/23 07:11:34;;;;;;;1.40;1.27;;;14.70;99.90;;;;;;5048615;28;20029;-74
2022/09/23 07:13:59;;;;;;;1.05;1.00;;;14.70;99.90;;;;;;5050059;28;20017;-74
2022/09/23 07:16:25;;;;;;;1.08;0.95;;;14.70;99.90;;;;;;5048748;28;20025;-74
2022/09/23 07:18:52;;;;;;;1.75;0.85;;;14.80;99.90;;;;;;5046865;28;20093;-75
2022/09/23 07:21:18;;;;;;;3.85;0.80;;;14.90;99.90;;;;;;5037260;28;20029;-75
2022/09/23 07:23:47;;;;;;;0.80;0.80;;;14.90;99.90;;;;;;5047147;28;20029;-75
2022/09/23 08:35:06;;;;;;;1.10;0.98;;;17.00;97.60;;;;;;6196842;22;1363413;-78
2022/09/23 08:37:31;;;;;;;1.38;1.17;;;17.20;93.80;;;;;;6250993;23;20458;-78
2022/09/23 08:40:00;;;;;;;2.08;0.63;;;17.20;94.30;;;;;;6253600;23;20000;-78
2022/09/23 08:42:32;;;;;;;0.43;0.43;;;17.20;95.30;;;;;;6223802;23;20019;-77
2022/09/23 08:45:04;;;;;;;0.65;0.65;;;17.20;96.30;;;;;;6251223;23;20071;-77
2022/09/23 08:47:51;;;;;;;0.90;0.80;;;17.20;94.90;;;;;;6223746;23;20007;-77
2022/09/23 08:50:23;;;;;;;2.25;0.88;;;17.20;94.70;;;;;;6251190;23;20049;-79
2022/09/23 08:53:01;;;;;;;1.95;0.90;;;17.20;92.80;;;;;;6251182;23;19999;-78
2022/09/23 08:55:33;;;;;;;2.22;0.95;;;17.20;92.50;;;;;;6222790;23;20011;-79
2022/09/23 08:58:20;;;;;;;2.78;0.80;;;17.20;92.70;;;;;;6250716;23;20059;-79
2022/09/23 09:01:08;;;;;;;1.35;1.25;;;17.40;92.70;;;;;;6224559;23;20083;-78
2022/09/23 09:03:46;;;;;;;1.20;0.95;;;17.40;93.80;;;;;;6223485;23;20008;-78
2022/09/23 09:06:19;;;;;;;0.65;0.60;;;17.40;94.10;;;;;;6250522;23;19992;-79
2022/09/23 09:08:51;;;;;;;1.08;0.75;;;17.40;93.60;;;;;;6223840;23;20081;-78
2022/09/23 09:11:19;;;;;;;2.13;0.85;;;17.50;95.10;;;;;;6224514;23;20335;-77
2022/09/23 09:14:04;;;;;;;1.95;0.68;;;17.50;94.90;;;;;;6250184;23;19996;-78
2022/09/23 09:16:52;;;;;;;0.80;0.80;;;17.50;95.70;;;;;;6250698;23;20003;-79
2022/09/23 09:19:51;;;;;;;0.75;0.75;;;17.70;94.30;;;;;;6207366;23;20058;-78
2022/09/23 09:22:35;;;;;;;3.13;0.70;;;17.70;93.30;;;;;;6145109;23;20662;-78
2022/09/23 09:25:11;;;;;;;0.60;0.60;;;17.80;94.80;;;;;;6250909;23;20030;-77
2022/09/23 09:27:40;;;;;;;0.93;0.90;;;17.90;95.20;;;;;;6224159;23;20459;-78
2022/09/23 09:30:13;;;;;;;0.63;0.63;;;17.90;93.00;;;;;;6223260;23;20004;-78
2022/09/23 09:32:46;;;;;;;1.00;1.00;;;18.00;93.70;;;;;;6222771;23;20011;-77
2022/09/23 09:35:43;;;;;;;1.00;0.93;;;17.90;93.10;;;;;;6187633;23;20044;-77
2022/09/23 09:38:09;;;;;;;0.93;0.93;;;17.90;94.20;;;;;;6187021;23;20642;-77
2022/09/23 10:01:32;;;;;;;3.28;1.70;;;17.90;94.20;;;;;;5129624;27;20408;-81
2022/09/23 10:04:00;;;;;;;2.58;1.85;;;18.40;93.50;;;;;;5128413;27;20034;-81
2022/09/23 10:06:32;;;;;;;1.52;1.42;;;18.40;95.30;;;;;;5129662;27;20020;-82
2022/09/23 10:09:03;;;;;;;;;;;18.50;93.70;;;;;;5130010;27;20054;-82
2022/09/23 10:11:33;;;;;;;2.40;0.90;;;18.50;93.10;;;;;;5110939;28;19903;-82
2022/09/23 13:33:53;;;;;;;6.45;2.17;;;20.20;85.50;;;;;;5128740;27;20378;-76
2022/09/23 13:36:20;;;;;;;2.35;2.15;;;21.00;85.20;;;;;;5128976;28;20027;-76
2022/09/23 13:38:46;;;;;;;2.65;1.90;;;21.00;84.20;;;;;;5127997;27;20020;-77
2022/09/23 13:41:20;;;;;;;1.95;1.80;;;21.00;84.70;;;;;;5131485;27;20024;-78
2022/09/23 13:43:57;;;;;;;3.17;1.77;;;21.00;83.90;;;;;;5129580;27;20098;-79
2022/09/23 13:46:32;;;;;;;2.60;2.40;;;21.00;85.10;;;;;;5164273;27;20019;-78
2022/09/23 13:48:58;;;;;;;2.20;2.10;;;20.90;81.70;;;;;;5130648;27;20027;-77
2022/09/23 13:51:31;;;;;;;1.60;1.50;;;20.80;82.20;;;;;;5130142;27;20115;-78
2022/09/23 13:53:59;;;;;;;1.77;1.67;;;20.80;85.40;;;;;;5128383;27;20201;-78
2022/09/23 13:56:28;;;;;;;1.65;1.55;;;20.80;85.80;;;;;;5128734;28;20062;-78
2022/09/23 13:59:09;;;;;;;2.10;1.90;;;20.80;86.00;;;;;;5127353;28;20028;-78
2022/09/23 14:01:35;;;;;;;2.85;2.00;;;20.80;86.50;;;;;;5128382;27;20084;-78
2022/09/23 14:04:01;;;;;;;1.90;1.80;;;20.80;84.80;;;;;;5128078;27;20027;-79
2022/09/23 14:06:30;;;;;;;2.03;1.80;;;20.90;84.80;;;;;;5127085;28;20027;-79
2022/09/23 14:08:58;;;;;;;4.53;2.03;;;20.90;86.10;;;;;;5127807;27;20026;-78
2022/09/23 14:11:34;;;;;;;3.08;1.98;;;21.00;86.10;;;;;;5126513;28;20031;-78
2022/09/23 14:14:05;;;;;;;2.75;1.30;;;21.00;87.20;;;;;;5124841;27;20015;-77
2022/09/23 14:16:34;;;;;;;2.45;2.20;;;21.10;88.20;;;;;;5126024;27;20022;-77
2022/09/23 14:19:00;;;;;;;3.17;2.33;;;21.20;84.00;;;;;;5125207;27;20100;-77
2022/09/23 14:21:34;;;;;;;2.20;2.00;;;21.20;84.80;;;;;;5123173;28;20027;-78
2022/09/23 14:24:09;;;;;;;2.17;1.90;;;21.10;83.40;;;;;;5120310;27;20031;-79
2022/09/23 14:26:36;;;;;;;2.17;2.03;;;21.20;84.10;;;;;;5122293;27;20061;-78
2022/09/23 14:29:03;;;;;;;2.13;1.92;;;21.10;84.10;;;;;;5123410;28;20529;-79
2022/09/23 14:31:29;;;;;;;1.88;1.70;;;21.20;83.80;;;;;;5123492;27;20066;-79
2022/09/23 14:33:54;;;;;;;4.70;1.73;;;21.20;83.70;;;;;;5109935;28;20223;-79
2022/09/23 14:39:11;;;;;;;1.77;1.67;;;21.20;84.10;;;;;;5088876;28;20031;-78
2022/09/23 14:41:43;;;;;;;3.40;2.10;;;21.20;82.50;;;;;;5101580;28;20160;-77
2022/09/23 14:44:20;;;;;;;;;;;21.00;82.90;;;;;;5114333;28;20026;-78
2022/09/23 14:46:57;;;;;;;1.80;1.70;;;21.10;83.00;;;;;;5147177;27;19911;-78
2022/09/23 14:49:23;;;;;;;2.38;2.00;;;21.10;83.90;;;;;;5112461;28;20480;-78
2022/09/23 14:51:54;;;;;;;2.33;2.08;;;21.10;83.90;;;;;;5113765;28;20153;-78
2022/09/23 14:54:43;;;;;;;2.10;2.00;;;21.10;83.50;;;;;;5112674;28;20388;-78
2022/09/23 14:57:21;;;;;;;3.20;1.85;;;21.10;82.00;;;;;;5113859;28;20475;-78
2022/09/23 14:59:58;;;;;;;1.92;1.83;;;21.20;84.00;;;;;;5112425;28;20108;-77
2022/09/23 15:02:31;;;;;;;2.42;2.10;;;21.20;82.90;;;;;;5113664;28;20035;-77
2022/09/23 15:05:14;;;;;;;1.65;1.55;;;21.20;83.50;;;;;;5113707;28;20051;-75
2022/09/23 15:07:40;;;;;;;1.83;1.73;;;21.30;84.60;;;;;;5113707;28;20482;-76
2022/09/23 15:10:12;;;;;;;3.22;1.95;;;21.30;82.80;;;;;;5113405;28;20243;-75
2022/09/23 15:12:39;;;;;;;1.92;1.67;;;21.20;83.60;;;;;;5113252;28;20024;-75
2022/09/23 15:15:12;;;;;;;3.15;2.00;;;21.20;84.00;;;;;;5113410;28;20027;-76
2022/09/23 15:17:38;;;;;;;2.90;1.90;;;21.20;83.10;;;;;;5113192;28;20068;-75
2022/09/23 15:20:17;;;;;;;3.00;2.10;;;21.20;83.50;;;;;;5113578;28;20023;-77
2022/09/23 15:22:48;;;;;;;2.35;2.15;;;21.20;83.40;;;;;;5111840;28;20466;-77
2022/09/23 15:25:29;;;;;;;1.83;1.73;;;21.10;84.80;;;;;;5113074;28;20109;-78
2022/09/23 15:28:02;;;;;;;2.70;1.65;;;21.10;84.30;;;;;;5116182;28;20072;-76
2022/09/23 15:30:28;;;;;;;2.15;1.88;;;21.10;85.20;;;;;;5105858;28;20456;-76
2022/09/23 15:32:53;;;;;;;2.10;1.77;;;21.10;84.30;;;;;;5108957;28;20336;-77
2022/09/23 15:50:18;;;;;;;7.70;2.30;;;21.20;87.20;;;;;;6198918;22;1313050;-77
2022/09/23 15:52:47;;;;;;;2.58;1.65;;;21.60;85.30;;;;;;6230806;23;20012;-76
2022/09/23 15:55:22;;;;;;;3.60;2.78;;;21.60;84.70;;;;;;6251495;23;20411;-77
2022/09/23 15:57:48;;;;;;;10.05;2.22;;;21.50;82.10;;;;;;6222771;23;20011;-75
2022/09/23 16:00:14;;;;;;;4.65;2.58;;;21.40;82.10;;;;;;6249947;23;19999;-77
2022/09/23 16:02:43;;;;;;;4.35;2.42;;;21.40;86.40;;;;;;6222910;23;20007;-76
2022/09/23 16:05:33;;;;;;;1.65;1.55;;;21.30;82.90;;;;;;6250728;23;20411;-77
2022/09/23 16:07:59;;;;;;;4.32;1.80;;;21.40;83.40;;;;;;6222005;23;20038;-76
2022/09/23 16:10:25;;;;;;;3.20;2.75;;;21.40;84.70;;;;;;6249995;23;20007;-77
2022/09/23 16:12:54;;;;;;;2.08;1.95;;;21.30;84.20;;;;;;6249442;23;20007;-77
2022/09/23 16:15:22;;;;;;;2.42;1.80;;;21.30;83.80;;;;;;6226860;23;20090;-78
2022/09/23 16:17:48;;;;;;;9.55;1.90;;;21.20;88.10;;;;;;6253961;23;20506;-77
2022/09/23 16:20:16;;;;;;;5.30;1.83;;;21.10;90.40;;;;;;6253151;23;20039;-78
2022/09/23 16:22:51;;;;;;;1.98;1.88;;;20.80;90.90;;;;;;6251552;23;20006;-78
2022/09/23 16:25:17;;;;;;;4.38;1.50;;;20.70;91.60;;;;;;6251773;23;19996;-78
2022/09/23 16:27:43;;;;;;;1.85;1.58;;;20.50;91.70;;;;;;6251555;23;20007;-77
2022/09/23 16:30:10;;;;;;;1.63;1.52;;;20.40;92.10;;;;;;6224337;23;20083;-77
2022/09/23 16:32:36;;;;;;;3.28;1.85;;;20.10;92.50;;;;;;6249564;23;20163;-78
2022/09/23 16:35:01;;;;;;;3.63;1.70;;;20.00;92.90;;;;;;6249275;23;20004;-78
2022/09/23 16:37:27;;;;;;;2.70;1.58;;;19.80;93.50;;;;;;6249718;23;20027;-78
2022/09/23 16:39:53;;;;;;;4.00;2.03;;;19.60;94.30;;;;;;6250121;23;20395;-78
2022/09/23 16:42:20;;;;;;;4.30;1.52;;;19.40;95.30;;;;;;6249975;23;20020;-78
2022/09/23 16:44:46;;;;;;;1.85;1.48;;;19.30;95.60;;;;;;6223293;23;20155;-78
2022/09/23 16:47:11;;;;;;;7.13;1.77;;;19.20;96.10;;;;;;6250838;23;20007;-78
2022/09/23 16:49:37;;;;;;;5.90;3.30;;;19.10;96.40;;;;;;6216213;23;20071;-78
2022/09/23 16:52:03;;;;;;;3.35;2.92;;;19.00;96.80;;;;;;6213975;23;20021;-77
2022/09/23 16:54:29;;;;;;;5.03;2.75;;;19.00;97.10;;;;;;6214122;23;20450;-78
2022/09/23 16:56:54;;;;;;;13.18;5.10;;;18.90;97.50;;;;;;6212728;23;20028;-77
2022/09/23 16:59:20;;;;;;;13.85;7.57;;;18.80;97.90;;;;;;6213805;23;20467;-77
2022/09/23 17:04:31;;;;;;;3.72;2.80;;;18.70;98.10;;;;;;6213086;23;20011;-77
2022/09/23 17:06:57;;;;;;;2.67;1.90;;;18.70;98.40;;;;;;6213620;23;20324;-77
2022/09/23 17:09:26;;;;;;;2.00;1.70;;;18.60;98.60;;;;;;6213980;23;20012;-77
2022/09/23 17:12:27;;;;;;;2.45;1.55;;;18.50;98.70;;;;;;6214116;23;20004;-77
2022/09/23 17:14:53;;;;;;;2.45;2.20;;;18.50;98.90;;;;;;6214000;23;20232;-77
2022/09/23 17:17:18;;;;;;;1.95;1.80;;;18.40;99.40;;;;;;6213846;23;20079;-77
2022/09/23 17:19:44;;;;;;;2.10;1.65;;;18.30;99.60;;;;;;6213772;23;19996;-77
2022/09/23 17:22:10;;;;;;;4.07;1.88;;;18.30;99.70;;;;;;6212432;23;20376;-77
2022/09/23 17:24:38;;;;;;;2.75;1.90;;;18.20;99.80;;;;;;6212226;23;20234;-77
2022/09/23 17:27:04;;;;;;;3.40;2.10;;;18.10;99.90;;;;;;6210534;23;20004;-77
2022/09/23 17:29:30;;;;;;;2.60;2.03;;;18.00;99.90;;;;;;6212351;23;20461;-77
2022/09/23 17:31:56;;;;;;;2.53;2.13;;;17.90;99.90;;;;;;6212191;23;20012;-77
2022/09/23 17:34:23;;;;;;;3.80;2.63;;;17.80;99.90;;;;;;6210788;23;20005;-77
2022/09/23 17:36:48;;;;;;;2.55;2.15;;;17.80;99.90;;;;;;6213121;23;20059;-77
2022/09/23 17:39:15;;;;;;;3.25;2.35;;;17.70;99.90;;;;;;6213491;23;20079;-77
2022/09/23 17:41:42;;;;;;;3.08;2.65;;;17.70;99.90;;;;;;6213832;23;20001;-77
2022/09/23 17:44:10;;;;;;;4.63;2.53;;;17.60;99.90;;;;;;6212225;23;20248;-77
2022/09/23 17:46:36;;;;;;;3.80;2.47;;;17.50;99.90;;;;;;6213562;23;20432;-77
2022/09/23 17:49:02;;;;;;;3.80;3.38;;;17.50;99.90;;;;;;6230058;23;20023;-77
2022/09/23 17:51:28;;;;;;;3.58;2.95;;;17.40;99.90;;;;;;6243978;23;20000;-77
2022/09/23 17:53:54;;;;;;;4.95;3.67;;;17.40;99.90;;;;;;6243783;23;20080;-77
2022/09/23 17:56:25;;;;;;;8.35;3.53;;;17.40;99.90;;;;;;6243875;23;20028;-77
2022/09/23 17:58:52;;;;;;;7.53;3.78;;;17.30;99.90;;;;;;6243678;23;20008;-77
2022/09/23 18:01:20;;;;;;;7.97;3.65;;;17.20;99.90;;;;;;6216469;23;20008;-77
2022/09/23 18:03:47;;;;;;;4.03;3.10;;;17.20;99.90;;;;;;6243823;23;20019;-77
2022/09/23 18:06:15;;;;;;;3.63;3.33;;;17.20;99.90;;;;;;6243863;23;20035;-76
2022/09/23 18:08:43;;;;;;;7.72;3.42;;;17.10;99.90;;;;;;6216727;23;20008;-77
2022/09/23 18:11:16;;;;;;;3.35;3.03;;;17.00;99.90;;;;;;6243718;23;20000;-76
2022/09/23 18:13:53;;;;;;;4.07;3.17;;;16.90;99.90;;;;;;6243725;23;20338;-77
2022/09/23 18:16:22;;;;;;;5.82;3.03;;;16.80;99.90;;;;;;6243591;23;20317;-76
2022/09/23 18:18:56;;;;;;;4.20;3.05;;;16.70;99.90;;;;;;6216735;23;20455;-77